Time;durP1;ratioP1;P1;durP2;ratioP2;P2;SDS_P1;SDS_P2;PMS_P1;PMS_P2;Temp;Humidity;BMP_temperature;BMP_pressure;BME280_temperature;BME280_humidity;BME280_pressure;Samples;Min_cycle;Max_cycle;Signal;HPM_P1;HPM_P2
2021/12/23 00:01:38;;;;;;;27.48;20.38;;;8.30;88.70;;;;;;5017890;28;20042;-66
2021/12/23 00:04:04;;;;;;;28.67;21.00;;;8.20;88.20;;;;;;5034987;28;20118;-68
2021/12/23 00:06:31;;;;;;;28.27;21.45;;;8.20;88.70;;;;;;5034995;28;20494;-66
2021/12/23 00:09:00;;;;;;;30.23;20.55;;;8.10;88.50;;;;;;5035097;28;20127;-76
2021/12/23 00:11:44;;;;;;;27.95;20.08;;;8.10;88.90;;;;;;5034380;28;20037;-69
2021/12/23 00:14:11;;;;;;;29.95;21.20;;;8.10;89.00;;;;;;5034928;28;20033;-70
2021/12/23 00:16:43;;;;;;;28.38;20.10;;;8.20;89.40;;;;;;5034936;28;20034;-65
2021/12/23 00:19:36;;;;;;;31.20;20.08;;;8.20;89.50;;;;;;5035085;28;20029;-68
2021/12/23 00:24:49;;;;;;;30.15;18.88;;;8.20;90.20;;;;;;5035072;28;20033;-73
2021/12/23 00:27:15;;;;;;;26.52;19.48;;;8.20;88.80;;;;;;5034561;28;20420;-68
2021/12/23 00:29:41;;;;;;;25.25;19.08;;;8.20;89.40;;;;;;5034731;28;20022;-72
2021/12/23 00:32:08;;;;;;;23.85;19.05;;;8.20;89.40;;;;;;5034972;28;20034;-73
2021/12/23 00:34:35;;;;;;;30.13;19.52;;;8.20;90.00;;;;;;5035031;28;20037;-76
2021/12/23 00:37:05;;;;;;;24.63;18.98;;;8.10;90.00;;;;;;5035095;28;20017;-73
2021/12/23 00:39:32;;;;;;;25.35;18.40;;;8.10;89.90;;;;;;5034525;28;20048;-75
2021/12/23 00:42:06;;;;;;;26.17;19.25;;;8.00;89.80;;;;;;5034495;28;20431;-64
2021/12/23 00:44:33;;;;;;;25.92;19.17;;;8.00;90.20;;;;;;5034364;28;20526;-67
2021/12/23 00:46:58;;;;;;;25.17;18.63;;;8.00;90.10;;;;;;5034391;28;20040;-71
2021/12/23 00:49:24;;;;;;;24.80;18.65;;;8.00;90.20;;;;;;5034124;28;20128;-72
2021/12/23 00:51:50;;;;;;;27.05;18.20;;;8.10;90.20;;;;;;5034155;28;20037;-76
2021/12/23 00:54:15;;;;;;;23.35;17.95;;;8.10;90.20;;;;;;5034215;28;20104;-73
2021/12/23 00:56:48;;;;;;;30.05;19.58;;;8.10;90.00;;;;;;5034212;28;20367;-75
2021/12/23 00:59:14;;;;;;;22.95;17.85;;;8.10;89.30;;;;;;5034179;28;20039;-77
2021/12/23 01:01:40;;;;;;;24.23;17.45;;;8.10;90.20;;;;;;5034241;28;20116;-73
2021/12/23 01:04:05;;;;;;;24.25;18.52;;;8.10;90.00;;;;;;5016541;28;20040;-71
2021/12/23 01:06:31;;;;;;;23.88;18.15;;;8.00;90.00;;;;;;5034141;28;20041;-65
2021/12/23 01:08:57;;;;;;;27.88;18.35;;;8.10;89.80;;;;;;5033951;28;20032;-65
2021/12/23 01:11:24;;;;;;;25.23;19.40;;;8.10;90.00;;;;;;5033907;28;20136;-65
2021/12/23 01:16:50;;;;;;;26.38;20.00;;;8.00;89.50;;;;;;5034075;28;20040;-66
2021/12/23 01:19:18;;;;;;;24.25;18.50;;;8.00;89.20;;;;;;5033570;28;20025;-67
2021/12/23 01:21:44;;;;;;;24.25;18.55;;;8.00;90.00;;;;;;5033654;28;20034;-67
2021/12/23 01:24:10;;;;;;;27.65;17.67;;;8.00;89.90;;;;;;5033638;28;20037;-65
2021/12/23 01:26:37;;;;;;;25.90;18.13;;;8.00;89.90;;;;;;5016199;28;20526;-65
2021/12/23 01:29:03;;;;;;;26.00;19.25;;;8.00;90.10;;;;;;5033532;28;20026;-68
2021/12/23 01:31:31;;;;;;;25.75;18.63;;;8.00;89.90;;;;;;5033438;28;20030;-66
2021/12/23 01:33:57;;;;;;;23.25;17.98;;;8.10;88.90;;;;;;5033593;28;20441;-65
2021/12/23 01:36:24;;;;;;;25.05;17.55;;;8.10;89.20;;;;;;5033498;28;20021;-67
2021/12/23 01:38:53;;;;;;;25.17;17.55;;;8.10;89.60;;;;;;5033452;28;20475;-64
2021/12/23 01:41:32;;;;;;;20.83;16.70;;;8.20;89.60;;;;;;5033418;28;20030;-65
2021/12/23 01:43:57;;;;;;;26.13;17.80;;;8.20;88.90;;;;;;5033729;28;20105;-65
2021/12/23 01:46:24;;;;;;;28.02;17.83;;;8.20;88.80;;;;;;5033742;28;20101;-65
2021/12/23 01:48:51;;;;;;;22.80;17.33;;;8.30;88.40;;;;;;5032963;28;20075;-66
2021/12/23 01:51:17;;;;;;;20.15;16.20;;;8.30;88.70;;;;;;5033068;28;20490;-66
2021/12/23 01:53:43;;;;;;;25.52;16.80;;;8.30;88.70;;;;;;5033164;28;20139;-66
2021/12/23 01:56:09;;;;;;;23.73;16.77;;;8.30;88.30;;;;;;5033104;28;20032;-67
2021/12/23 01:58:40;;;;;;;23.48;16.00;;;8.30;88.40;;;;;;5033035;28;20487;-69
2021/12/23 02:01:08;;;;;;;23.67;17.05;;;8.30;88.10;;;;;;5032939;28;20057;-66
2021/12/23 02:03:35;;;;;;;24.50;16.95;;;8.30;88.30;;;;;;5033176;28;20053;-67
2021/12/23 02:06:01;;;;;;;22.27;16.40;;;8.30;88.50;;;;;;4999165;28;20146;-69
2021/12/23 02:08:27;;;;;;;21.27;16.42;;;8.30;88.30;;;;;;5032856;28;20026;-65
2021/12/23 02:10:55;;;;;;;20.85;16.08;;;8.20;87.80;;;;;;5033259;28;20036;-72
2021/12/23 02:13:22;;;;;;;21.15;16.27;;;8.20;88.50;;;;;;5032960;28;20396;-76
2021/12/23 02:15:48;;;;;;;20.88;16.40;;;8.20;88.60;;;;;;5033016;28;20489;-77
2021/12/23 02:18:14;;;;;;;24.27;16.73;;;8.10;88.40;;;;;;5032834;28;20117;-76
2021/12/23 02:20:40;;;;;;;23.27;15.27;;;8.10;88.40;;;;;;5014955;28;20104;-76
2021/12/23 02:23:09;;;;;;;22.13;15.10;;;8.10;88.40;;;;;;5014491;28;20045;-76
2021/12/23 02:25:36;;;;;;;23.60;16.92;;;8.10;88.90;;;;;;5032859;28;20080;-76
2021/12/23 02:28:07;;;;;;;22.90;15.80;;;8.10;89.10;;;;;;5032706;28;20502;-77
2021/12/23 02:30:37;;;;;;;22.40;16.40;;;8.00;88.70;;;;;;5032999;28;20045;-77
2021/12/23 02:33:05;;;;;;;22.63;15.75;;;8.00;89.30;;;;;;5032805;28;20041;-77
2021/12/23 02:35:31;;;;;;;19.95;14.98;;;8.00;89.30;;;;;;5032799;28;20087;-77
2021/12/23 02:37:57;;;;;;;20.42;14.55;;;8.00;89.20;;;;;;5015063;28;20124;-77
2021/12/23 02:40:31;;;;;;;18.77;14.95;;;8.00;88.40;;;;;;5032706;28;20018;-75
2021/12/23 02:43:07;;;;;;;20.60;15.57;;;8.00;89.40;;;;;;5032627;28;20025;-77
2021/12/23 02:45:33;;;;;;;18.27;14.73;;;7.90;89.20;;;;;;5032679;28;20475;-76
2021/12/23 02:48:05;;;;;;;19.10;14.55;;;7.90;89.20;;;;;;5032748;28;20029;-76
2021/12/23 02:50:31;;;;;;;20.27;15.65;;;7.80;89.80;;;;;;5014727;28;20045;-76
2021/12/23 02:52:58;;;;;;;19.67;14.95;;;7.80;89.70;;;;;;5032408;28;20041;-77
2021/12/23 02:55:24;;;;;;;21.65;15.52;;;7.80;89.70;;;;;;5032525;28;20025;-76
2021/12/23 02:57:50;;;;;;;24.55;14.63;;;7.80;89.50;;;;;;5032520;28;20030;-76
2021/12/23 03:00:16;;;;;;;20.25;14.52;;;7.70;90.00;;;;;;5032471;28;20104;-77
2021/12/23 03:02:42;;;;;;;18.02;14.80;;;7.70;89.90;;;;;;5014766;28;20037;-78
2021/12/23 03:05:08;;;;;;;19.33;15.07;;;7.60;90.00;;;;;;5032450;28;20037;-78
2021/12/23 03:07:35;;;;;;;18.80;14.65;;;7.60;90.10;;;;;;5032454;28;20076;-78
2021/12/23 03:10:04;;;;;;;18.98;14.27;;;7.60;90.30;;;;;;5032316;28;20033;-76
2021/12/23 03:12:30;;;;;;;22.52;15.43;;;7.60;90.50;;;;;;5015132;28;20141;-77
2021/12/23 03:14:59;;;;;;;22.13;15.40;;;7.60;90.40;;;;;;5032455;28;20096;-76
2021/12/23 03:17:25;;;;;;;19.33;14.15;;;7.60;90.60;;;;;;5032208;28;20033;-76
2021/12/23 03:19:51;;;;;;;20.45;15.57;;;7.60;90.50;;;;;;5032241;28;20076;-78
2021/12/23 03:22:17;;;;;;;20.58;16.08;;;7.50;90.60;;;;;;5032399;28;20029;-76
2021/12/23 03:24:43;;;;;;;21.73;15.73;;;7.50;90.80;;;;;;5032433;28;20036;-77
2021/12/23 03:27:10;;;;;;;18.15;15.55;;;7.50;90.70;;;;;;5032278;28;20025;-75
2021/12/23 03:29:35;;;;;;;22.05;15.13;;;7.50;90.50;;;;;;5031953;28;20029;-78
2021/12/23 03:32:01;;;;;;;19.88;14.75;;;7.50;90.70;;;;;;5032078;28;20095;-76
2021/12/23 03:34:28;;;;;;;20.85;15.75;;;7.50;90.60;;;;;;5032066;28;20030;-72
2021/12/23 03:36:54;;;;;;;24.08;15.63;;;7.40;90.10;;;;;;5034843;28;20068;-76
2021/12/23 03:39:20;;;;;;;20.90;15.10;;;7.40;90.90;;;;;;5018029;28;20057;-74
2021/12/23 03:41:47;;;;;;;20.60;15.93;;;7.40;90.90;;;;;;5035703;28;20037;-74
2021/12/23 03:44:13;;;;;;;24.33;16.42;;;7.40;91.00;;;;;;5035662;28;20092;-78
2021/12/23 03:46:39;;;;;;;22.48;16.77;;;7.40;91.10;;;;;;5035464;28;20038;-69
2021/12/23 03:49:06;;;;;;;21.42;16.83;;;7.40;90.80;;;;;;5036355;28;20021;-69
2021/12/23 03:51:33;;;;;;;22.10;17.08;;;7.30;91.00;;;;;;5036939;28;20056;-73
2021/12/23 03:53:59;;;;;;;19.95;16.90;;;7.30;91.20;;;;;;5036647;28;20108;-76
2021/12/23 03:56:24;;;;;;;24.05;17.30;;;7.30;91.20;;;;;;5036087;28;20101;-77
2021/12/23 03:58:50;;;;;;;24.10;18.77;;;7.30;91.20;;;;;;5035398;28;20111;-76
2021/12/23 04:01:17;;;;;;;23.30;18.13;;;7.30;91.30;;;;;;5034922;28;20045;-78
2021/12/23 04:03:43;;;;;;;24.38;18.20;;;7.30;91.30;;;;;;5035546;28;20053;-75
2021/12/23 04:06:09;;;;;;;24.15;18.83;;;7.30;91.50;;;;;;5035460;28;20502;-73
2021/12/23 04:08:34;;;;;;;24.13;19.10;;;7.20;91.50;;;;;;5035169;28;20022;-78
2021/12/23 04:11:01;;;;;;;26.67;19.23;;;7.20;91.80;;;;;;5035199;28;20471;-67
2021/12/23 04:13:27;;;;;;;24.55;19.13;;;7.20;91.70;;;;;;5017265;28;20140;-65
2021/12/23 04:15:54;;;;;;;23.55;18.40;;;7.10;91.60;;;;;;5035029;28;20032;-77
2021/12/23 04:18:19;;;;;;;24.52;19.35;;;7.20;92.00;;;;;;5035073;28;20021;-77
2021/12/23 04:20:53;;;;;;;27.05;19.35;;;7.10;91.70;;;;;;5035143;28;20509;-78
2021/12/23 04:23:25;;;;;;;30.05;20.00;;;7.20;92.00;;;;;;5035468;28;20034;-78
2021/12/23 04:25:52;;;;;;;26.55;19.27;;;7.20;90.60;;;;;;5035211;28;20018;-76
2021/12/23 04:28:19;;;;;;;26.70;18.58;;;7.10;92.10;;;;;;5035199;28;20083;-77
2021/12/23 04:30:46;;;;;;;25.48;18.77;;;7.10;92.10;;;;;;5035164;28;20028;-76
2021/12/23 04:33:12;;;;;;;24.33;18.92;;;7.10;90.80;;;;;;5035666;28;20036;-77
2021/12/23 04:35:39;;;;;;;24.33;18.08;;;7.10;92.10;;;;;;5035294;28;20021;-77
2021/12/23 04:38:05;;;;;;;24.20;18.25;;;7.10;91.10;;;;;;5034836;28;20033;-75
2021/12/23 04:40:34;;;;;;;22.10;17.35;;;7.10;91.90;;;;;;5034723;28;20031;-76
2021/12/23 04:43:01;;;;;;;23.10;16.42;;;7.10;91.90;;;;;;5034917;28;20032;-77
2021/12/23 04:45:27;;;;;;;24.10;17.95;;;7.10;92.00;;;;;;5034749;28;20037;-78
2021/12/23 04:47:54;;;;;;;23.38;17.92;;;7.00;91.80;;;;;;4999460;28;20034;-78
2021/12/23 04:50:20;;;;;;;23.20;18.23;;;7.00;91.90;;;;;;5034253;28;20522;-78
2021/12/23 04:52:46;;;;;;;25.67;17.52;;;7.00;92.00;;;;;;5034293;28;20037;-77
2021/12/23 04:55:14;;;;;;;21.88;17.75;;;6.90;91.90;;;;;;5034368;28;20509;-77
2021/12/23 04:57:40;;;;;;;24.60;17.95;;;7.00;92.20;;;;;;5034265;28;20030;-77
2021/12/23 05:00:12;;;;;;;25.10;17.63;;;7.00;91.90;;;;;;5034058;28;20104;-78
2021/12/23 05:02:39;;;;;;;22.27;17.17;;;7.10;91.40;;;;;;5033029;28;20033;-77
2021/12/23 05:05:06;;;;;;;21.20;16.77;;;7.10;91.90;;;;;;5034032;28;20040;-74
2021/12/23 05:07:32;;;;;;;20.38;15.88;;;7.00;91.40;;;;;;5034051;28;20052;-74
2021/12/23 05:10:03;;;;;;;21.75;16.38;;;7.10;91.80;;;;;;5033939;28;20474;-76
2021/12/23 05:12:29;;;;;;;23.50;16.50;;;7.10;92.10;;;;;;5033649;28;20030;-76
2021/12/23 05:14:55;;;;;;;20.27;15.75;;;7.20;91.80;;;;;;5033947;28;20017;-75
2021/12/23 05:17:22;;;;;;;21.27;15.15;;;7.30;91.60;;;;;;5033627;28;20517;-76
2021/12/23 05:19:47;;;;;;;20.35;15.07;;;7.30;90.60;;;;;;5033591;28;20033;-77
2021/12/23 05:22:14;;;;;;;19.55;14.73;;;7.30;91.50;;;;;;5033617;28;20018;-71
2021/12/23 05:24:40;;;;;;;19.35;14.18;;;7.30;91.30;;;;;;4999752;28;20032;-78
2021/12/23 05:27:06;;;;;;;21.95;14.52;;;7.30;91.30;;;;;;5015901;28;20116;-78
2021/12/23 05:29:32;;;;;;;20.40;14.85;;;7.30;91.50;;;;;;5033433;28;20029;-74
2021/12/23 05:31:57;;;;;;;19.08;14.95;;;7.30;91.30;;;;;;5033544;28;20112;-76
2021/12/23 05:34:23;;;;;;;18.23;14.00;;;7.30;91.40;;;;;;5033527;28;20021;-79
2021/12/23 05:36:49;;;;;;;19.20;13.85;;;7.40;91.20;;;;;;5033467;28;20047;-77
2021/12/23 05:39:16;;;;;;;17.10;13.60;;;7.40;91.10;;;;;;5033295;28;20029;-78
2021/12/23 05:41:42;;;;;;;20.05;13.60;;;7.50;91.00;;;;;;5033283;28;20025;-74
2021/12/23 05:44:07;;;;;;;20.63;13.90;;;7.50;90.90;;;;;;5015486;28;20091;-77
2021/12/23 05:46:36;;;;;;;18.70;12.63;;;7.50;90.80;;;;;;5032336;28;20037;-72
2021/12/23 05:49:02;;;;;;;18.10;13.93;;;7.50;90.30;;;;;;5032981;28;20079;-78
2021/12/23 05:51:27;;;;;;;16.88;13.07;;;7.50;90.80;;;;;;5015210;28;20042;-77
2021/12/23 05:53:53;;;;;;;20.58;13.27;;;7.60;91.00;;;;;;5032961;28;20033;-78
2021/12/23 05:56:19;;;;;;;20.00;13.40;;;7.60;90.60;;;;;;5032888;28;20036;-76
2021/12/23 05:58:46;;;;;;;20.02;14.27;;;7.60;90.50;;;;;;5032668;28;20075;-75
2021/12/23 06:01:11;;;;;;;17.92;14.45;;;7.50;90.00;;;;;;5032844;28;20029;-73
2021/12/23 06:03:39;;;;;;;21.50;15.75;;;7.50;90.80;;;;;;5032812;28;20495;-75
2021/12/23 06:06:05;;;;;;;18.75;14.80;;;7.50;90.80;;;;;;5033267;28;20053;-76
2021/12/23 06:08:33;;;;;;;19.67;14.98;;;7.50;90.70;;;;;;5015559;28;20083;-74
2021/12/23 06:10:58;;;;;;;27.67;15.75;;;7.40;90.60;;;;;;5033225;28;20032;-74
2021/12/23 06:13:25;;;;;;;20.10;15.48;;;7.40;90.70;;;;;;5033067;28;20402;-75
2021/12/23 06:15:51;;;;;;;21.27;15.57;;;7.40;90.00;;;;;;5014844;28;20030;-76
2021/12/23 06:18:17;;;;;;;20.20;14.82;;;7.40;90.80;;;;;;5032577;28;20104;-73
2021/12/23 06:20:43;;;;;;;20.98;15.32;;;7.40;90.80;;;;;;5032490;28;20017;-74
2021/12/23 06:23:09;;;;;;;21.30;16.45;;;7.40;90.80;;;;;;5032551;28;20091;-76
2021/12/23 06:25:34;;;;;;;20.85;15.27;;;7.40;90.90;;;;;;5014622;28;20029;-72
2021/12/23 06:28:01;;;;;;;22.40;15.18;;;7.40;90.90;;;;;;5032369;28;20092;-73
2021/12/23 06:30:26;;;;;;;20.67;15.80;;;7.40;91.00;;;;;;5032577;28;20117;-74
2021/12/23 06:32:54;;;;;;;23.52;16.67;;;7.40;90.80;;;;;;5032014;28;20502;-68
2021/12/23 06:35:24;;;;;;;24.20;15.60;;;7.40;90.80;;;;;;5032777;28;20032;-68
2021/12/23 06:37:51;;;;;;;22.15;16.00;;;7.40;90.80;;;;;;5032214;28;20151;-67
2021/12/23 06:40:17;;;;;;;21.35;14.68;;;7.50;90.80;;;;;;4992789;28;20118;-71
2021/12/23 06:42:44;;;;;;;19.33;15.73;;;7.50;90.80;;;;;;4993066;28;20519;-66
2021/12/23 06:45:10;;;;;;;23.67;16.30;;;7.40;90.60;;;;;;5005443;28;20174;-67
2021/12/23 06:47:37;;;;;;;22.55;15.63;;;7.30;90.50;;;;;;5015281;28;20424;-69
2021/12/23 06:50:06;;;;;;;23.52;16.27;;;7.20;90.70;;;;;;5015217;28;20507;-68
2021/12/23 06:52:32;;;;;;;22.20;16.42;;;7.20;90.60;;;;;;5020229;28;20417;-67
2021/12/23 06:54:58;;;;;;;25.83;16.23;;;7.20;91.10;;;;;;4975612;28;20030;-67
2021/12/23 06:57:25;;;;;;;20.85;14.93;;;7.30;91.00;;;;;;4992744;28;20437;-68
2021/12/23 06:59:51;;;;;;;18.25;14.05;;;7.30;90.80;;;;;;4992875;28;20058;-66
2021/12/23 07:02:17;;;;;;;21.65;14.38;;;7.40;90.60;;;;;;4975517;28;20137;-69
2021/12/23 07:04:45;;;;;;;19.70;14.15;;;7.50;90.70;;;;;;4992806;28;20388;-66
2021/12/23 07:07:19;;;;;;;19.50;14.00;;;7.60;90.50;;;;;;4993064;28;20377;-71
2021/12/23 07:09:45;;;;;;;24.65;14.07;;;7.60;90.50;;;;;;4992315;28;20077;-66
2021/12/23 07:12:12;;;;;;;19.38;13.50;;;7.60;90.20;;;;;;4995805;28;20076;-66
2021/12/23 07:14:39;;;;;;;21.42;13.88;;;7.60;90.20;;;;;;5006678;28;20487;-67
2021/12/23 07:17:07;;;;;;;23.52;13.85;;;7.60;90.00;;;;;;5035406;28;20083;-67
2021/12/23 07:19:34;;;;;;;17.85;12.90;;;7.60;89.50;;;;;;5034984;28;20121;-64
2021/12/23 07:22:00;;;;;;;18.65;12.95;;;7.70;90.10;;;;;;5035482;28;20025;-66
2021/12/23 07:24:25;;;;;;;18.42;13.88;;;7.70;90.10;;;;;;5035516;28;20459;-70
2021/12/23 07:26:54;;;;;;;20.70;13.27;;;7.70;89.80;;;;;;5035470;28;20037;-66
2021/12/23 07:29:20;;;;;;;22.27;13.70;;;7.70;89.60;;;;;;5035317;28;20116;-77
2021/12/23 07:31:51;;;;;;;16.58;12.70;;;7.70;89.60;;;;;;5034703;28;20065;-78
2021/12/23 07:34:20;;;;;;;21.67;12.38;;;7.70;88.70;;;;;;5018007;28;20057;-76
2021/12/23 07:36:46;;;;;;;23.23;13.50;;;7.80;88.90;;;;;;5035296;28;20026;-76
2021/12/23 07:39:15;;;;;;;18.60;13.20;;;7.80;89.00;;;;;;5037761;28;20072;-72
2021/12/23 07:41:41;;;;;;;23.67;12.45;;;7.70;89.40;;;;;;5020939;28;20029;-79
2021/12/23 07:44:09;;;;;;;18.45;12.70;;;7.80;89.60;;;;;;5019106;28;20111;-78
2021/12/23 07:46:37;;;;;;;20.33;13.35;;;7.80;89.50;;;;;;5035057;28;20026;-76
2021/12/23 07:49:05;;;;;;;17.88;13.20;;;7.90;89.30;;;;;;5034012;28;20029;-77
2021/12/23 07:51:31;;;;;;;17.35;12.88;;;8.00;88.10;;;;;;5035056;28;20033;-74
2021/12/23 07:53:57;;;;;;;16.48;12.73;;;8.00;88.20;;;;;;5035354;28;20105;-71
2021/12/23 07:56:26;;;;;;;17.70;13.80;;;8.10;88.30;;;;;;5035200;28;20029;-73
2021/12/23 07:58:57;;;;;;;19.48;12.85;;;8.10;88.70;;;;;;5032270;28;20049;-80
2021/12/23 08:01:23;;;;;;;19.83;12.40;;;8.20;88.10;;;;;;5036056;28;20076;-79
2021/12/23 08:03:49;;;;;;;20.30;12.82;;;8.20;88.10;;;;;;5019690;28;20414;-75
2021/12/23 08:06:15;;;;;;;16.73;12.05;;;8.40;88.00;;;;;;5017187;28;20033;-74
2021/12/23 08:08:42;;;;;;;17.33;12.27;;;8.40;87.90;;;;;;5035073;28;20103;-74
2021/12/23 08:11:13;;;;;;;14.63;11.60;;;8.50;87.90;;;;;;5017363;28;20030;-73
2021/12/23 08:13:39;;;;;;;18.38;11.90;;;8.60;86.60;;;;;;5017860;28;20080;-75
2021/12/23 08:16:06;;;;;;;14.27;10.88;;;8.70;87.20;;;;;;5034801;28;20327;-80
2021/12/23 08:18:34;;;;;;;20.73;13.77;;;8.70;86.10;;;;;;5034853;28;20482;-74
2021/12/23 08:21:01;;;;;;;21.65;11.13;;;8.80;87.10;;;;;;5035105;28;20044;-80
2021/12/23 08:23:28;;;;;;;17.65;11.80;;;8.80;85.90;;;;;;5035262;28;20056;-73
2021/12/23 08:25:54;;;;;;;31.52;20.30;;;8.80;86.80;;;;;;5035455;28;20032;-76
2021/12/23 08:28:21;;;;;;;32.47;21.15;;;8.90;86.90;;;;;;5034536;28;20038;-74
2021/12/23 08:30:47;;;;;;;34.30;21.80;;;9.00;87.20;;;;;;5017141;28;20037;-76
2021/12/23 08:33:18;;;;;;;17.92;12.98;;;9.10;86.90;;;;;;5017015;28;20068;-78
2021/12/23 08:35:50;;;;;;;19.02;12.13;;;9.10;86.10;;;;;;5017838;28;20108;-76
2021/12/23 08:38:17;;;;;;;19.38;12.50;;;9.10;86.60;;;;;;5033125;28;20037;-71
2021/12/23 08:40:43;;;;;;;16.85;12.30;;;9.20;85.80;;;;;;5016727;28;20083;-75
2021/12/23 08:43:10;;;;;;;20.00;12.93;;;9.20;86.10;;;;;;5016986;28;20026;-73
2021/12/23 08:45:37;;;;;;;21.52;11.68;;;9.30;84.90;;;;;;5034511;28;20105;-69
2021/12/23 08:48:07;;;;;;;17.13;11.90;;;9.30;86.10;;;;;;5016843;28;20049;-75
2021/12/23 08:50:35;;;;;;;18.17;12.73;;;9.30;84.70;;;;;;5036211;28;20049;-81
2021/12/23 08:53:03;;;;;;;20.48;13.45;;;9.30;85.00;;;;;;5019173;28;20046;-72
2021/12/23 08:55:31;;;;;;;20.27;13.15;;;9.40;86.10;;;;;;5036927;28;20060;-68
2021/12/23 08:58:04;;;;;;;20.05;13.90;;;9.50;85.10;;;;;;5035033;28;20403;-74
2021/12/23 09:00:31;;;;;;;21.90;14.20;;;9.60;84.50;;;;;;5033950;28;20033;-68
2021/12/23 09:02:58;;;;;;;22.00;13.25;;;9.80;85.40;;;;;;5034328;28;20025;-67
2021/12/23 09:05:24;;;;;;;19.25;13.65;;;10.00;83.60;;;;;;5034442;28;20481;-73
2021/12/23 09:07:51;;;;;;;22.65;13.23;;;10.00;83.00;;;;;;5036993;28;20029;-75
2021/12/23 09:10:17;;;;;;;19.60;14.43;;;10.10;83.00;;;;;;5016890;28;20029;-74
2021/12/23 09:12:44;;;;;;;17.10;12.70;;;10.20;83.20;;;;;;5033983;28;20459;-69
2021/12/23 09:15:11;;;;;;;19.75;13.40;;;10.20;82.50;;;;;;5034089;28;20471;-74
2021/12/23 09:17:38;;;;;;;20.92;13.63;;;10.20;82.90;;;;;;5015900;28;20387;-76
2021/12/23 09:20:06;;;;;;;18.33;13.23;;;10.20;83.00;;;;;;5030604;28;20018;-69
2021/12/23 09:22:33;;;;;;;20.55;12.98;;;10.20;82.40;;;;;;5033594;28;20541;-67
2021/12/23 09:25:06;;;;;;;21.15;13.93;;;10.20;82.90;;;;;;5029580;28;20382;-69
2021/12/23 09:27:55;;;;;;;24.55;14.23;;;10.30;83.10;;;;;;5033507;28;20187;-76
2021/12/23 09:33:12;;;;;;;25.17;13.60;;;10.40;82.80;;;;;;5033391;28;20123;-77
2021/12/23 09:35:39;;;;;;;19.83;13.75;;;10.40;82.10;;;;;;5034109;28;20033;-73
2021/12/23 09:38:05;;;;;;;22.30;13.55;;;10.40;82.80;;;;;;5033437;28;20021;-66
2021/12/23 09:40:34;;;;;;;34.80;20.95;;;10.40;83.30;;;;;;5015887;28;20195;-70
2021/12/23 09:43:08;;;;;;;59.03;36.47;;;10.50;83.70;;;;;;5033032;28;20026;-74
2021/12/23 09:45:36;;;;;;;25.13;17.50;;;10.60;82.40;;;;;;5032729;28;20599;-70
2021/12/23 09:48:03;;;;;;;25.65;15.52;;;10.60;83.60;;;;;;5033139;28;20021;-76
2021/12/23 09:50:34;;;;;;;20.20;14.13;;;10.80;83.30;;;;;;5033051;28;20049;-71
2021/12/23 09:53:04;;;;;;;19.98;14.63;;;10.90;83.40;;;;;;5015223;28;20087;-67
2021/12/23 09:55:35;;;;;;;17.92;13.57;;;10.90;82.10;;;;;;5032786;28;20106;-68
2021/12/23 09:58:03;;;;;;;26.70;16.73;;;10.90;82.50;;;;;;5032597;28;20032;-71
2021/12/23 10:00:32;;;;;;;22.85;14.95;;;11.00;82.50;;;;;;5014877;28;20168;-69
2021/12/23 10:03:00;;;;;;;24.95;15.27;;;11.10;81.80;;;;;;5032806;28;20025;-67
2021/12/23 10:05:45;;;;;;;23.38;14.32;;;11.20;81.00;;;;;;5032896;28;20071;-72
2021/12/23 10:08:13;;;;;;;22.15;15.35;;;11.40;80.80;;;;;;5014896;28;20041;-68
2021/12/23 10:10:57;;;;;;;23.38;15.13;;;11.50;80.80;;;;;;5033357;28;20103;-70
2021/12/23 10:30:51;;;;;;;22.17;15.60;;;12.20;78.90;;;;;;5033033;28;20101;-68
2021/12/23 10:38:51;;;;;;;22.08;16.85;;;12.40;76.90;;;;;;5022114;28;20041;-68
2021/12/23 10:41:24;;;;;;;25.25;15.65;;;12.50;76.70;;;;;;5032509;28;20040;-68
2021/12/23 10:44:27;;;;;;;25.30;15.40;;;12.60;77.50;;;;;;5032152;28;20036;-73
2021/12/23 10:46:53;;;;;;;21.70;14.10;;;12.80;76.40;;;;;;5035860;28;20105;-69
2021/12/23 10:52:08;;;;;;;22.58;15.65;;;12.90;76.20;;;;;;5037058;28;20355;-69
2021/12/23 11:00:33;;;;;;;27.30;16.42;;;12.90;76.40;;;;;;5036840;28;20170;-71
2021/12/23 11:03:42;;;;;;;23.17;15.43;;;12.90;76.80;;;;;;5036333;28;20029;-73
2021/12/23 11:06:19;;;;;;;23.48;16.20;;;12.90;76.90;;;;;;5036304;28;20498;-72
2021/12/23 11:09:15;;;;;;;35.28;17.88;;;12.90;76.20;;;;;;5035445;28;20057;-76
2021/12/23 11:39:06;;;;;;;28.88;19.98;;;13.20;77.10;;;;;;5035227;28;20056;-72
2021/12/23 11:41:35;;;;;;;;;;;13.20;76.80;;;;;;5033448;28;20038;-66
2021/12/23 11:44:04;;;;;;;23.67;16.10;;;13.30;76.60;;;;;;5035536;28;19996;-72
2021/12/23 11:46:50;;;;;;;20.25;16.33;;;13.40;76.70;;;;;;5018190;28;20036;-69
2021/12/23 11:49:28;;;;;;;24.23;16.63;;;13.60;76.80;;;;;;5033860;23;20056;-71
2021/12/23 11:51:55;;;;;;;26.33;16.33;;;13.80;76.80;;;;;;5014988;28;20072;-69
2021/12/23 11:54:34;;;;;;;25.20;17.40;;;13.80;76.50;;;;;;5014457;28;20141;-70
2021/12/23 11:57:09;;;;;;;23.92;16.85;;;13.90;76.40;;;;;;5014438;28;20119;-70
2021/12/23 11:59:37;;;;;;;24.08;17.88;;;14.00;76.30;;;;;;5014796;28;20053;-70
2021/12/23 12:02:16;;;;;;;25.27;18.35;;;14.00;76.30;;;;;;5014789;28;20029;-74
2021/12/23 12:04:42;;;;;;;26.45;16.65;;;14.00;76.30;;;;;;5015188;28;20025;-72
2021/12/23 12:07:12;;;;;;;21.77;17.08;;;14.10;76.30;;;;;;5014740;28;20033;-73
2021/12/23 12:10:05;;;;;;;25.13;16.25;;;14.20;76.50;;;;;;5014853;28;20026;-72
2021/12/23 12:12:33;;;;;;;24.83;14.80;;;14.30;76.80;;;;;;5014693;28;20034;-70
2021/12/23 12:15:00;;;;;;;22.67;16.05;;;14.40;76.30;;;;;;5014422;28;20084;-72
2021/12/23 12:17:25;;;;;;;21.50;14.55;;;14.40;76.20;;;;;;5014498;28;20349;-69
2021/12/23 12:20:23;;;;;;;18.98;14.60;;;14.50;76.40;;;;;;5014365;28;20033;-68
2021/12/23 12:22:54;;;;;;;23.45;15.43;;;14.50;76.50;;;;;;5014497;28;20061;-65
2021/12/23 12:25:25;;;;;;;22.83;15.80;;;14.50;76.70;;;;;;5014552;28;20080;-68
2021/12/23 12:28:20;;;;;;;90.85;19.30;;;14.50;76.90;;;;;;5014456;28;20065;-71
2021/12/23 12:30:55;;;;;;;24.17;15.93;;;14.50;77.10;;;;;;5013946;28;20086;-69
2021/12/23 12:33:23;;;;;;;19.00;15.00;;;14.50;78.30;;;;;;5014471;28;20065;-70
2021/12/23 12:36:02;;;;;;;21.60;15.50;;;14.50;77.90;;;;;;5014292;28;20046;-71
2021/12/23 12:38:31;;;;;;;22.92;16.60;;;14.50;78.00;;;;;;5014303;28;20456;-72
2021/12/23 12:41:03;;;;;;;33.92;17.73;;;14.40;77.70;;;;;;5013796;28;20092;-75
2021/12/23 12:43:44;;;;;;;21.60;14.90;;;14.40;78.00;;;;;;5014144;28;20088;-69
2021/12/23 12:46:16;;;;;;;28.35;12.85;;;14.40;78.50;;;;;;5013937;28;20038;-69
2021/12/23 12:48:58;;;;;;;27.17;13.48;;;14.30;79.10;;;;;;5013466;28;20045;-78
2021/12/23 12:51:35;;;;;;;31.05;13.27;;;14.20;78.90;;;;;;4996414;28;20433;-69
2021/12/23 12:54:08;;;;;;;17.15;13.68;;;14.10;80.00;;;;;;5013983;28;20032;-69
2021/12/23 12:56:42;;;;;;;20.50;12.90;;;14.10;79.70;;;;;;5013611;28;20060;-67
2021/12/23 12:59:09;;;;;;;17.35;11.52;;;14.00;80.00;;;;;;5013512;28;20025;-68
2021/12/23 13:01:37;;;;;;;17.48;12.32;;;14.00;80.40;;;;;;5013874;28;20472;-67
2021/12/23 13:04:06;;;;;;;28.00;19.63;;;13.90;80.70;;;;;;5014073;28;20029;-71
2021/12/23 13:06:40;;;;;;;21.65;14.75;;;13.90;81.60;;;;;;5014392;28;20018;-64
2021/12/23 13:09:11;;;;;;;19.95;13.02;;;13.90;82.70;;;;;;5012641;28;20109;-67
2021/12/23 13:11:42;;;;;;;18.02;13.05;;;13.90;83.50;;;;;;5013616;28;20034;-65
2021/12/23 13:14:14;;;;;;;18.13;13.55;;;13.80;84.30;;;;;;5013508;28;20014;-67
2021/12/23 13:16:55;;;;;;;15.77;11.90;;;13.80;84.40;;;;;;5013453;28;20034;-65
2021/12/23 13:19:35;;;;;;;18.25;13.05;;;13.70;85.30;;;;;;5013100;28;20097;-67
2021/12/23 13:22:05;;;;;;;18.10;12.60;;;13.70;86.00;;;;;;5013150;28;20057;-67
2021/12/23 13:24:32;;;;;;;18.75;13.70;;;13.60;86.60;;;;;;5013327;28;20022;-69
2021/12/23 13:27:00;;;;;;;17.30;11.80;;;13.60;87.10;;;;;;5013576;28;20034;-71
2021/12/23 13:29:29;;;;;;;15.80;10.90;;;13.60;87.90;;;;;;5013487;28;20430;-73
2021/12/23 13:31:57;;;;;;;16.23;11.68;;;13.60;88.20;;;;;;5013333;28;20369;-67
2021/12/23 13:34:28;;;;;;;15.57;10.52;;;13.50;88.50;;;;;;5012986;28;20052;-66
2021/12/23 13:36:57;;;;;;;12.60;9.90;;;13.50;89.00;;;;;;5013611;28;20053;-67
2021/12/23 13:39:26;;;;;;;13.40;9.70;;;13.50;89.40;;;;;;5012894;28;20392;-66
2021/12/23 13:42:09;;;;;;;14.60;9.60;;;13.40;89.80;;;;;;5013229;28;20046;-66
2021/12/23 13:44:38;;;;;;;13.48;9.05;;;13.40;90.00;;;;;;5013363;28;20033;-68
2021/12/23 13:47:07;;;;;;;12.77;9.43;;;13.40;90.00;;;;;;5013456;28;20029;-65
2021/12/23 13:49:56;;;;;;;15.57;8.98;;;13.40;90.00;;;;;;5012854;28;20125;-66
2021/12/23 13:52:26;;;;;;;12.07;8.57;;;13.40;89.50;;;;;;5013187;28;20056;-74